Tok, AK (99776)

1:17 PM AKST on February 07, 2016 (GMT -0900)
Turks on the Tundra | | Change Station
CLOSE
Current Station
Personal Weather Station
Location: Tok, AK
Elevation: 1635 ft
Nearby Weather Stations

Elev 1635 ft 63.34 °N, 142.99 °W | Updated 5 minutes ago

Mostly Cloudy
Mostly Cloudy
-4.8 °F
Feels Like -5 °F
N
0.0
Wind Variable Wind from West
Gusts 0.0 mph

Today
High -- | Low -- °F
--% Chance of Precip.
Yesterday
High -- | Low -- °F
Precip. -- in
Pressure 30.17 in
Visibility 10.0 miles
Clouds Few 200 ft
Mostly Cloudy 18000 ft
Windchill -5 °F
Dew Point -8 °F
Humidity 85%
Rainfall 0.00 in
Snow Depth Not available.
8:49 AM 4:43 PM
Waning Crescent, 1% visible
METAR PAOR 072153Z 00000KT 10SM FEW002 BKN180 M22/M25 A2994 RMK AO2 SLP217 T12221250
Pressure 30.17 in
Visibility 10.0 miles
Clouds Few 200 ft
Mostly Cloudy 18000 ft
Windchill -5 °F
Dew Point -8 °F
Humidity 85%
Rainfall 0.00 in
Snow Depth Not available.
8:49 AM 4:43 PM
Waning Crescent, 1% visible
METAR PAOR 072153Z 00000KT 10SM FEW002 BKN180 M22/M25 A2994 RMK AO2 SLP217 T12221250

10-Day Weather Forecast

Almanac

Astronomy

Feb. 07, 2016 Rise Set
Actual Time
Civil Twilight
Nautical Twilight
Astronomical Twilight
Moon
Length of Visible Light
Length of Day
Tomorrow will be .
, % of the Moon is Illuminated

Today's Extremes

State Highs State Lows

Community

WunderPhotos

Upload Photos

1,891,309 photos uploaded!

WunderBlog® & News

Nearby

Air Quality

  Air Quality AQ Index Pollutant
Not available.

Snow Depth

Station Depth Elevation

Earthquake Activity

City Distance Mag. Time & Date
Minimum magnitude displayed is 2.5.

Coastal Water Temperatures

Place Temperature

Stations

Nearby Weather Stations

Station Location Temp. Windchill Dew Point Humidity Wind Precip. Elev Updated Type
                   

Watches & Warnings

There are currently no watches in effect.